Time;durP1;ratioP1;P1;durP2;ratioP2;P2;SDS_P1;SDS_P2;PMS_P1;PMS_P2;Temp;Humidity;BMP_temperature;BMP_pressure;BME280_temperature;BME280_humidity;BME280_pressure;Samples;Min_cycle;Max_cycle;Signal;HPM_P1;HPM_P2
2022/10/17 00:01:35;;;;;;;2.33;1.20;;;;;;;;;;4990189;28;20254;-28
2022/10/17 00:04:02;;;;;;;3.07;1.50;;;;;;;;;;4998658;28;20231;-31
2022/10/17 00:06:30;;;;;;;1.40;1.30;;;;;;;;;;4999295;28;20215;-31
2022/10/17 00:08:57;;;;;;;1.13;1.13;;;;;;;;;;4989628;28;20211;-34
2022/10/17 00:11:25;;;;;;;1.40;1.27;;;;;;;;;;4988860;28;20227;-30
2022/10/17 00:13:54;;;;;;;6.27;1.70;;;;;;;;;;4994343;28;20204;-30
2022/10/17 00:16:24;;;;;;;3.10;1.43;;;;;;;;;;4999091;28;20209;-29
2022/10/17 00:18:51;;;;;;;1.80;1.17;;;;;;;;;;5001971;28;20210;-32
2022/10/17 00:21:19;;;;;;;2.23;2.13;;;;;;;;;;5003936;28;20261;-33
2022/10/17 00:23:48;;;;;;;1.80;1.30;;;;;;;;;;5005230;28;20227;-28
2022/10/17 00:26:16;;;;;;;3.73;2.07;;;;;;;;;;4999197;28;20207;-32
2022/10/17 00:28:43;;;;;;;4.30;1.63;;;;;;;;;;4994616;28;20290;-30
2022/10/17 00:31:10;;;;;;;1.50;1.40;;;;;;;;;;5009421;28;20251;-30
2022/10/17 00:33:38;;;;;;;1.57;1.47;;;;;;;;;;4999992;28;20219;-30
2022/10/17 00:36:06;;;;;;;2.57;1.37;;;;;;;;;;5001406;28;20215;-31
2022/10/17 00:38:33;;;;;;;4.07;1.50;;;;;;;;;;5001686;28;20204;-29
2022/10/17 00:41:01;;;;;;;4.13;1.47;;;;;;;;;;4997059;28;20211;-28
2022/10/17 00:43:29;;;;;;;1.23;1.20;;;;;;;;;;5003697;28;20220;-33
2022/10/17 00:45:56;;;;;;;1.30;1.17;;;;;;;;;;5004069;28;20211;-32
2022/10/17 00:48:25;;;;;;;1.73;1.23;;;;;;;;;;5000717;28;20212;-31
2022/10/17 00:50:53;;;;;;;1.80;1.50;;;;;;;;;;5006700;28;20223;-32
2022/10/17 00:53:20;;;;;;;2.67;1.70;;;;;;;;;;5010958;28;20218;-30
2022/10/17 00:55:50;;;;;;;1.13;1.13;;;;;;;;;;5007927;28;20662;-30
2022/10/17 00:58:19;;;;;;;10.00;1.43;;;;;;;;;;4991869;28;20208;-31
2022/10/17 01:00:47;;;;;;;1.07;1.07;;;;;;;;;;4995480;28;20234;-31
2022/10/17 01:03:14;;;;;;;1.37;1.27;;;;;;;;;;4999981;28;20229;-30
2022/10/17 01:05:42;;;;;;;1.50;1.40;;;;;;;;;;5002022;28;20207;-32
2022/10/17 01:08:09;;;;;;;1.17;1.07;;;;;;;;;;5002545;28;20203;-33
2022/10/17 01:10:41;;;;;;;3.57;1.23;;;;;;;;;;5007714;28;20299;-32
2022/10/17 01:13:11;;;;;;;1.93;1.00;;;;;;;;;;4999920;28;20232;-31
2022/10/17 01:15:43;;;;;;;4.43;1.40;;;;;;;;;;4996217;28;20206;-31
2022/10/17 01:18:13;;;;;;;1.10;1.00;;;;;;;;;;5005520;28;20211;-33
2022/10/17 01:21:08;;;;;;;1.00;1.00;;;;;;;;;;5003085;28;20235;-30
2022/10/17 01:23:47;;;;;;;1.23;1.13;;;;;;;;;;5005804;28;20222;-30
2022/10/17 01:26:18;;;;;;;3.90;1.40;;;;;;;;;;5003893;28;20207;-30
2022/10/17 01:28:58;;;;;;;6.40;1.47;;;;;;;;;;4999630;28;20208;-33
2022/10/17 01:31:31;;;;;;;0.80;0.80;;;;;;;;;;4994476;28;20234;-32
2022/10/17 01:34:03;;;;;;;0.80;0.80;;;;;;;;;;5000369;28;20204;-31
2022/10/17 01:36:37;;;;;;;2.90;1.17;;;;;;;;;;5000801;28;20231;-29
2022/10/17 01:39:08;;;;;;;0.97;0.97;;;;;;;;;;4992367;28;20210;-33
2022/10/17 01:41:39;;;;;;;1.43;1.17;;;;;;;;;;4992230;28;20234;-33
2022/10/17 01:44:10;;;;;;;1.07;1.07;;;;;;;;;;5004149;28;20316;-31
2022/10/17 01:46:39;;;;;;;1.07;1.00;;;;;;;;;;4991430;28;20212;-30
2022/10/17 01:49:07;;;;;;;4.87;1.23;;;;;;;;;;5000071;28;20298;-30
2022/10/17 01:51:37;;;;;;;1.23;1.10;;;;;;;;;;4998437;28;20223;-32
2022/10/17 01:54:07;;;;;;;1.17;1.07;;;;;;;;;;5003314;28;20294;-31
2022/10/17 01:56:35;;;;;;;0.90;0.90;;;;;;;;;;5005289;28;20216;-29
2022/10/17 01:59:05;;;;;;;1.00;1.00;;;;;;;;;;5012354;28;20301;-29
2022/10/17 02:01:32;;;;;;;1.23;0.97;;;;;;;;;;5008883;28;20230;-32
2022/10/17 02:04:01;;;;;;;2.20;1.17;;;;;;;;;;5006268;28;20231;-28
2022/10/17 02:06:28;;;;;;;0.93;0.93;;;;;;;;;;5013335;28;20207;-31
2022/10/17 02:08:56;;;;;;;1.50;1.40;;;;;;;;;;5001066;28;20258;-29
2022/10/17 02:11:24;;;;;;;1.80;1.70;;;;;;;;;;5007173;28;20310;-29
2022/10/17 02:14:01;;;;;;;4.63;1.40;;;;;;;;;;5001976;28;20207;-29
2022/10/17 02:16:34;;;;;;;3.53;1.80;;;;;;;;;;5002751;28;20210;-32
2022/10/17 02:19:08;;;;;;;1.27;1.27;;;;;;;;;;5003663;28;20215;-33
2022/10/17 02:21:40;;;;;;;1.60;1.50;;;;;;;;;;4990794;28;20231;-34
2022/10/17 02:24:10;;;;;;;4.00;1.37;;;;;;;;;;4993153;28;20302;-28
2022/10/17 02:26:40;;;;;;;1.40;1.30;;;;;;;;;;4997576;28;20221;-29
2022/10/17 02:29:09;;;;;;;2.27;1.43;;;;;;;;;;5008548;28;20229;-33
2022/10/17 02:31:39;;;;;;;1.43;1.33;;;;;;;;;;4998977;28;20250;-29
2022/10/17 02:34:10;;;;;;;3.73;1.73;;;;;;;;;;4995935;28;20209;-29
2022/10/17 02:36:39;;;;;;;5.37;1.50;;;;;;;;;;4994582;28;20208;-29
2022/10/17 02:39:07;;;;;;;6.20;1.67;;;;;;;;;;5010286;28;20207;-33
2022/10/17 02:41:34;;;;;;;3.33;1.90;;;;;;;;;;5001322;28;20225;-33
2022/10/17 02:44:03;;;;;;;1.67;1.57;;;;;;;;;;4994376;28;20224;-31
2022/10/17 02:46:31;;;;;;;1.77;1.53;;;;;;;;;;4998367;28;20204;-30
2022/10/17 02:49:00;;;;;;;5.20;1.40;;;;;;;;;;4995410;28;20218;-31
2022/10/17 02:51:30;;;;;;;1.50;1.40;;;;;;;;;;4995245;28;20228;-32
2022/10/17 02:54:03;;;;;;;2.27;1.60;;;;;;;;;;5009995;28;20199;-30
2022/10/17 02:56:32;;;;;;;3.80;1.47;;;;;;;;;;5004665;28;20208;-31
2022/10/17 02:59:00;;;;;;;1.60;1.50;;;;;;;;;;4998867;28;20576;-31
2022/10/17 03:01:28;;;;;;;1.90;1.30;;;;;;;;;;4998808;28;20226;-32
2022/10/17 03:04:05;;;;;;;2.10;1.70;;;;;;;;;;4994238;28;20310;-31
2022/10/17 03:06:33;;;;;;;2.30;1.30;;;;;;;;;;5000095;28;20214;-32
2022/10/17 03:09:00;;;;;;;1.70;1.60;;;;;;;;;;5005074;28;20211;-33
2022/10/17 03:11:27;;;;;;;3.63;1.63;;;;;;;;;;5006679;28;20230;-31
2022/10/17 03:13:55;;;;;;;7.70;1.57;;;;;;;;;;4994743;28;20201;-28
2022/10/17 03:16:22;;;;;;;2.50;1.50;;;;;;;;;;5008514;28;20207;-32
2022/10/17 03:18:49;;;;;;;9.93;2.07;;;;;;;;;;5001536;28;20208;-29
2022/10/17 03:21:16;;;;;;;8.10;1.77;;;;;;;;;;4990713;28;20237;-28
2022/10/17 03:23:45;;;;;;;2.37;1.50;;;;;;;;;;4997201;28;20238;-31
2022/10/17 03:26:12;;;;;;;1.60;1.50;;;;;;;;;;4991224;28;20212;-32
2022/10/17 03:28:39;;;;;;;6.67;2.63;;;;;;;;;;4994647;28;20205;-32
2022/10/17 03:31:09;;;;;;;8.63;2.37;;;;;;;;;;5005406;28;20219;-31
2022/10/17 03:33:37;;;;;;;4.10;2.03;;;;;;;;;;5002616;28;20226;-31
2022/10/17 03:36:07;;;;;;;4.00;1.90;;;;;;;;;;5007489;28;20302;-30
2022/10/17 03:38:34;;;;;;;1.83;1.63;;;;;;;;;;5029139;28;20239;-31
2022/10/17 03:41:03;;;;;;;1.77;1.67;;;;;;;;;;5026160;28;20231;-32
2022/10/17 03:43:31;;;;;;;4.50;1.60;;;;;;;;;;5001289;28;20237;-30
2022/10/17 03:45:58;;;;;;;3.50;1.63;;;;;;;;;;5010081;28;20208;-30
2022/10/17 03:48:25;;;;;;;1.50;1.40;;;;;;;;;;5003523;28;20203;-28
2022/10/17 03:50:52;;;;;;;3.60;1.40;;;;;;;;;;5003673;28;20229;-34
2022/10/17 03:53:19;;;;;;;1.70;1.60;;;;;;;;;;5010282;28;20203;-29
2022/10/17 03:55:46;;;;;;;1.87;1.57;;;;;;;;;;5010733;28;20203;-28
2022/10/17 03:58:15;;;;;;;3.53;1.20;;;;;;;;;;5003212;28;20215;-32
2022/10/17 04:00:42;;;;;;;3.10;1.73;;;;;;;;;;5000395;28;20321;-31
2022/10/17 04:03:09;;;;;;;4.77;1.50;;;;;;;;;;5008101;28;20615;-31
2022/10/17 04:05:36;;;;;;;1.77;1.53;;;;;;;;;;5005985;28;20230;-31
2022/10/17 04:08:03;;;;;;;5.77;1.60;;;;;;;;;;5005946;28;20204;-30
2022/10/17 04:10:31;;;;;;;1.57;1.40;;;;;;;;;;5013257;28;20256;-29
2022/10/17 04:12:58;;;;;;;1.90;1.70;;;;;;;;;;5005567;28;20210;-28
2022/10/17 04:15:27;;;;;;;2.30;1.60;;;;;;;;;;4993137;28;20224;-30
2022/10/17 04:17:54;;;;;;;6.97;1.90;;;;;;;;;;5004706;28;20203;-27
2022/10/17 04:20:21;;;;;;;2.23;1.60;;;;;;;;;;5002115;28;20241;-31
2022/10/17 04:22:48;;;;;;;1.60;1.50;;;;;;;;;;5006779;28;20208;-30
2022/10/17 04:25:15;;;;;;;1.40;1.30;;;;;;;;;;5011566;28;20236;-27
2022/10/17 04:27:42;;;;;;;1.60;1.50;;;;;;;;;;5001529;28;20214;-28
2022/10/17 04:30:10;;;;;;;6.17;1.70;;;;;;;;;;5001014;28;20223;-31
2022/10/17 04:32:39;;;;;;;2.40;1.50;;;;;;;;;;4992893;28;20223;-33
2022/10/17 04:35:06;;;;;;;2.63;1.50;;;;;;;;;;4993932;28;20204;-31
2022/10/17 04:37:34;;;;;;;1.80;1.60;;;;;;;;;;5009112;28;20197;-31
2022/10/17 04:40:01;;;;;;;2.17;1.93;;;;;;;;;;4993243;28;20255;-29
2022/10/17 04:42:29;;;;;;;5.77;1.77;;;;;;;;;;4993096;28;20642;-33
2022/10/17 04:44:56;;;;;;;2.00;1.90;;;;;;;;;;5006094;28;20238;-31
2022/10/17 04:47:23;;;;;;;2.73;1.93;;;;;;;;;;5008073;28;20210;-32
2022/10/17 04:49:52;;;;;;;2.63;1.57;;;;;;;;;;5003441;28;20243;-32
2022/10/17 04:52:19;;;;;;;6.23;3.50;;;;;;;;;;4994729;28;20215;-32
2022/10/17 04:54:46;;;;;;;3.10;2.87;;;;;;;;;;4992694;28;20211;-32
2022/10/17 04:57:13;;;;;;;3.20;2.00;;;;;;;;;;5006276;28;20493;-31
2022/10/17 04:59:40;;;;;;;2.63;2.30;;;;;;;;;;4996279;28;20207;-30
2022/10/17 05:02:07;;;;;;;7.13;2.10;;;;;;;;;;5012550;28;20210;-27
2022/10/17 05:04:34;;;;;;;1.93;1.60;;;;;;;;;;4988635;28;20227;-33
2022/10/17 05:07:03;;;;;;;3.43;1.67;;;;;;;;;;5000051;28;20208;-30
2022/10/17 05:09:30;;;;;;;2.00;1.80;;;;;;;;;;5006684;28;20698;-30
2022/10/17 05:11:57;;;;;;;4.10;1.97;;;;;;;;;;4992846;28;20307;-31
2022/10/17 05:14:25;;;;;;;3.77;1.70;;;;;;;;;;4996915;28;20235;-30
2022/10/17 05:16:52;;;;;;;2.20;1.50;;;;;;;;;;5008695;28;20207;-32
2022/10/17 05:19:19;;;;;;;3.23;1.80;;;;;;;;;;4995916;28;20216;-29
2022/10/17 05:21:46;;;;;;;3.63;2.63;;;;;;;;;;4997215;28;20246;-30
2022/10/17 05:24:15;;;;;;;3.27;1.60;;;;;;;;;;5012095;28;20210;-27
2022/10/17 05:26:42;;;;;;;3.10;2.20;;;;;;;;;;5007543;28;20216;-29
2022/10/17 05:29:10;;;;;;;2.20;2.00;;;;;;;;;;5006168;28;20212;-32
2022/10/17 05:31:37;;;;;;;3.97;2.37;;;;;;;;;;5307139;22;20232;-31
2022/10/17 05:34:04;;;;;;;3.57;2.40;;;;;;;;;;5058987;28;20214;-32
2022/10/17 05:36:31;;;;;;;2.60;2.10;;;;;;;;;;5081923;28;20205;-34
2022/10/17 05:38:58;;;;;;;2.13;1.70;;;;;;;;;;5091434;28;20193;-35
2022/10/17 05:41:27;;;;;;;6.40;2.20;;;;;;;;;;5085399;28;20316;-31
2022/10/17 05:43:54;;;;;;;4.50;2.30;;;;;;;;;;5066359;28;20208;-32
2022/10/17 05:46:21;;;;;;;2.03;1.83;;;;;;;;;;5081148;28;20226;-33
2022/10/17 05:48:48;;;;;;;4.03;2.00;;;;;;;;;;5072081;28;20213;-35
2022/10/17 05:51:15;;;;;;;2.90;2.10;;;;;;;;;;5082715;28;20229;-34
2022/10/17 05:53:43;;;;;;;2.53;1.90;;;;;;;;;;5080818;28;20207;-33
2022/10/17 05:56:11;;;;;;;2.00;1.80;;;;;;;;;;5073158;28;20208;-30
2022/10/17 05:58:42;;;;;;;3.63;2.40;;;;;;;;;;5069797;28;20234;-32
2022/10/17 06:01:10;;;;;;;2.87;2.20;;;;;;;;;;5073000;28;20263;-32
2022/10/17 06:03:37;;;;;;;4.40;2.27;;;;;;;;;;5064826;28;20209;-31
2022/10/17 06:06:05;;;;;;;4.90;1.90;;;;;;;;;;5073870;28;20226;-33
2022/10/17 06:08:32;;;;;;;4.13;2.20;;;;;;;;;;5081643;28;20268;-30
2022/10/17 06:10:59;;;;;;;3.63;1.90;;;;;;;;;;5073334;28;20230;-33
2022/10/17 06:13:27;;;;;;;2.80;1.90;;;;;;;;;;5066039;28;20210;-30
2022/10/17 06:15:55;;;;;;;1.93;1.83;;;;;;;;;;5085161;28;20211;-31
2022/10/17 06:18:25;;;;;;;2.60;1.70;;;;;;;;;;5073741;28;20298;-32
2022/10/17 06:20:52;;;;;;;2.83;1.83;;;;;;;;;;5068026;28;20247;-31
2022/10/17 06:23:19;;;;;;;2.67;1.97;;;;;;;;;;5082704;28;20202;-35
2022/10/17 06:25:46;;;;;;;2.70;2.07;;;;;;;;;;5093277;28;20220;-30
2022/10/17 06:28:13;;;;;;;3.63;1.73;;;;;;;;;;5064600;28;20201;-34
2022/10/17 06:30:41;;;;;;;2.17;1.77;;;;;;;;;;5080705;28;20229;-31
2022/10/17 06:33:09;;;;;;;2.23;1.67;;;;;;;;;;5066758;28;20301;-31
2022/10/17 06:35:36;;;;;;;3.53;1.70;;;;;;;;;;5067182;28;20231;-33
2022/10/17 06:38:04;;;;;;;1.73;1.60;;;;;;;;;;5077954;28;20217;-35
2022/10/17 06:40:31;;;;;;;2.50;1.73;;;;;;;;;;5093612;28;20236;-29
2022/10/17 06:42:58;;;;;;;1.70;1.60;;;;;;;;;;5082668;28;20212;-30
2022/10/17 06:45:25;;;;;;;2.00;1.47;;;;;;;;;;5072465;28;20229;-32
2022/10/17 06:47:53;;;;;;;4.83;2.20;;;;;;;;;;5073488;28;20202;-30
2022/10/17 06:50:21;;;;;;;3.73;1.50;;;;;;;;;;5065956;28;20315;-30
2022/10/17 06:52:51;;;;;;;3.90;1.43;;;;;;;;;;5072532;28;20201;-30
2022/10/17 06:55:18;;;;;;;1.40;1.30;;;;;;;;;;5071487;28;20197;-32
2022/10/17 06:57:45;;;;;;;1.40;1.30;;;;;;;;;;5067241;28;20212;-33
2022/10/17 07:00:13;;;;;;;1.27;1.17;;;;;;;;;;5081274;28;20218;-33
2022/10/17 07:02:40;;;;;;;1.50;1.40;;;;;;;;;;5086469;28;20209;-31
2022/10/17 07:05:07;;;;;;;2.17;1.50;;;;;;;;;;5065842;28;20430;-33
2022/10/17 07:07:38;;;;;;;1.00;1.00;;;;;;;;;;5066852;28;20278;-33
2022/10/17 07:10:07;;;;;;;7.73;1.70;;;;;;;;;;5083549;28;20227;-31
2022/10/17 07:12:34;;;;;;;3.73;1.50;;;;;;;;;;5072272;28;20205;-31
2022/10/17 07:15:03;;;;;;;1.93;1.53;;;;;;;;;;5055099;28;20265;-29
2022/10/17 07:17:30;;;;;;;5.27;1.90;;;;;;;;;;5056836;28;20219;-31
2022/10/17 07:19:57;;;;;;;3.33;2.00;;;;;;;;;;5058215;28;20226;-32
2022/10/17 07:22:24;;;;;;;6.73;2.03;;;;;;;;;;5077917;28;20201;-31
2022/10/17 07:24:56;;;;;;;9.17;1.90;;;;;;;;;;5092478;28;20235;-30
2022/10/17 07:27:24;;;;;;;4.73;1.97;;;;;;;;;;5070314;28;20207;-32
2022/10/17 07:29:51;;;;;;;4.87;1.90;;;;;;;;;;5063786;28;20229;-33
2022/10/17 07:32:18;;;;;;;6.00;2.03;;;;;;;;;;5066504;28;20247;-30
2022/10/17 07:34:46;;;;;;;3.83;2.13;;;;;;;;;;5065944;28;20215;-31
2022/10/17 07:37:16;;;;;;;5.90;2.50;;;;;;;;;;5068910;28;20292;-34
2022/10/17 07:39:43;;;;;;;4.63;2.20;;;;;;;;;;5078925;28;20217;-29
2022/10/17 07:42:13;;;;;;;6.10;2.27;;;;;;;;;;5067625;28;20202;-32
2022/10/17 07:44:40;;;;;;;7.20;2.20;;;;;;;;;;5072910;28;20205;-33
2022/10/17 07:47:08;;;;;;;4.80;2.00;;;;;;;;;;5067309;28;20253;-33
2022/10/17 07:49:41;;;;;;;8.10;2.37;;;;;;;;;;5062652;28;20208;-33
2022/10/17 07:52:09;;;;;;;9.43;2.60;;;;;;;;;;5077560;28;20284;-31
2022/10/17 07:54:37;;;;;;;3.07;2.00;;;;;;;;;;5077104;28;20212;-33
2022/10/17 07:57:04;;;;;;;2.40;2.20;;;;;;;;;;5063329;28;20210;-33
2022/10/17 07:59:33;;;;;;;5.20;2.63;;;;;;;;;;5068779;28;20201;-34
2022/10/17 08:02:00;;;;;;;5.93;2.37;;;;;;;;;;5071778;28;20202;-35
2022/10/17 08:04:28;;;;;;;5.57;2.23;;;;;;;;;;5054383;28;20214;-31
2022/10/17 08:06:55;;;;;;;2.97;2.20;;;;;;;;;;5080596;28;20248;-31
2022/10/17 08:09:23;;;;;;;2.53;2.03;;;;;;;;;;5091488;28;20287;-32
2022/10/17 08:11:54;;;;;;;9.80;2.47;;;;;;;;;;5067477;28;20311;-30
2022/10/17 08:14:21;;;;;;;4.80;2.67;;;;;;;;;;5069398;28;20211;-34
2022/10/17 08:16:49;;;;;;;5.77;2.20;;;;;;;;;;5071964;28;20202;-30
2022/10/17 08:19:17;;;;;;;7.80;2.73;;;;;;;;;;5062126;28;20213;-30
2022/10/17 08:21:45;;;;;;;6.37;3.13;;;;;;;;;;5075793;28;20228;-35
2022/10/17 08:24:12;;;;;;;5.53;2.20;;;;;;;;;;5074716;28;20201;-34
2022/10/17 08:26:39;;;;;;;2.37;2.17;;;;;;;;;;5069455;28;20268;-32
2022/10/17 08:29:07;;;;;;;4.60;2.13;;;;;;;;;;5075626;28;20246;-33
2022/10/17 08:31:34;;;;;;;4.40;2.50;;;;;;;;;;5073266;28;20225;-34
2022/10/17 08:34:02;;;;;;;2.47;2.27;;;;;;;;;;5058642;28;20210;-28
2022/10/17 08:36:29;;;;;;;3.50;2.10;;;;;;;;;;5078404;28;20205;-33
2022/10/17 08:38:56;;;;;;;3.87;2.20;;;;;;;;;;5085817;28;20215;-29
2022/10/17 08:41:35;;;;;;;8.63;2.90;;;;;;;;;;5069680;28;20232;-33
2022/10/17 08:44:06;;;;;;;5.80;2.70;;;;;;;;;;5073672;28;20205;-31
2022/10/17 08:46:36;;;;;;;5.00;2.50;;;;;;;;;;5086007;28;20311;-31
2022/10/17 08:49:06;;;;;;;5.90;2.53;;;;;;;;;;5065044;28;20268;-29
2022/10/17 08:51:36;;;;;;;7.07;2.90;;;;;;;;;;5078603;28;20216;-33
2022/10/17 08:54:05;;;;;;;4.73;2.63;;;;;;;;;;5076987;28;20209;-30
2022/10/17 08:56:35;;;;;;;8.70;2.43;;;;;;;;;;5071242;28;20240;-32
2022/10/17 08:59:05;;;;;;;7.67;2.57;;;;;;;;;;5075348;28;20204;-32
2022/10/17 09:01:33;;;;;;;3.90;2.27;;;;;;;;;;5082616;28;20228;-36
2022/10/17 09:04:13;;;;;;;3.23;2.20;;;;;;;;;;5062456;28;20215;-30
2022/10/17 09:06:41;;;;;;;2.80;2.17;;;;;;;;;;5084908;28;20232;-33
2022/10/17 09:09:15;;;;;;;5.40;2.50;;;;;;;;;;5094422;28;20215;-33
2022/10/17 09:11:48;;;;;;;2.67;2.00;;;;;;;;;;5066576;28;20237;-33
2022/10/17 09:14:25;;;;;;;4.80;2.53;;;;;;;;;;5064239;28;20211;-35
2022/10/17 09:16:58;;;;;;;2.13;1.93;;;;;;;;;;5074087;28;20200;-35
2022/10/17 09:19:31;;;;;;;3.90;2.27;;;;;;;;;;5066198;28;20206;-31
2022/10/17 09:22:02;;;;;;;4.60;2.33;;;;;;;;;;5082268;28;20205;-30
2022/10/17 09:24:35;;;;;;;3.20;2.00;;;;;;;;;;5094116;28;20287;-30
2022/10/17 09:27:02;;;;;;;6.93;2.20;;;;;;;;;;5094417;28;20209;-32
2022/10/17 09:29:30;;;;;;;3.20;2.20;;;;;;;;;;5067016;28;20290;-33
2022/10/17 09:32:01;;;;;;;3.97;2.20;;;;;;;;;;5072976;28;20210;-32
2022/10/17 09:34:31;;;;;;;7.90;2.10;;;;;;;;;;5068719;28;20206;-33
2022/10/17 09:36:59;;;;;;;5.90;2.17;;;;;;;;;;5080705;28;20275;-31
2022/10/17 09:39:30;;;;;;;5.77;2.80;;;;;;;;;;5075184;28;20201;-31
2022/10/17 09:41:58;;;;;;;3.20;2.27;;;;;;;;;;5063837;28;20232;-28
2022/10/17 09:44:29;;;;;;;3.07;2.00;;;;;;;;;;5061347;28;20208;-32
2022/10/17 09:47:07;;;;;;;4.07;1.97;;;;;;;;;;5068580;28;20213;-35
2022/10/17 09:49:36;;;;;;;2.60;2.00;;;;;;;;;;5061263;28;20200;-34
2022/10/17 09:52:04;;;;;;;3.30;1.90;;;;;;;;;;5076325;28;20206;-34
2022/10/17 09:54:36;;;;;;;6.23;2.10;;;;;;;;;;5093359;28;20208;-34
2022/10/17 09:57:05;;;;;;;1.70;1.60;;;;;;;;;;5085893;28;20220;-34
2022/10/17 09:59:33;;;;;;;2.10;1.90;;;;;;;;;;5072535;28;20211;-33
2022/10/17 10:02:15;;;;;;;2.93;1.90;;;;;;;;;;5086728;28;20197;-31
2022/10/17 10:04:53;;;;;;;10.83;1.97;;;;;;;;;;5066558;28;20197;-31
2022/10/17 10:07:23;;;;;;;3.03;1.80;;;;;;;;;;5072578;28;20219;-33
2022/10/17 10:09:51;;;;;;;2.13;1.73;;;;;;;;;;5093965;28;20235;-34
2022/10/17 10:12:20;;;;;;;1.93;1.60;;;;;;;;;;5074017;28;20196;-29
2022/10/17 10:14:47;;;;;;;2.10;1.63;;;;;;;;;;5078207;28;20206;-32
2022/10/17 10:17:28;;;;;;;3.37;1.63;;;;;;;;;;5093255;28;20295;-33
2022/10/17 10:19:57;;;;;;;1.77;1.63;;;;;;;;;;5067015;28;20231;-32
2022/10/17 10:22:24;;;;;;;1.93;1.63;;;;;;;;;;5083282;28;20208;-32
2022/10/17 10:25:06;;;;;;;3.40;1.90;;;;;;;;;;5093384;28;20204;-33
2022/10/17 10:27:33;;;;;;;5.13;1.97;;;;;;;;;;5072728;28;20212;-33
2022/10/17 10:30:00;;;;;;;5.23;1.93;;;;;;;;;;5068116;28;20241;-33
2022/10/17 10:32:29;;;;;;;3.53;1.73;;;;;;;;;;5070219;28;20209;-31
2022/10/17 10:34:59;;;;;;;3.50;2.00;;;;;;;;;;5062450;28;20300;-35
2022/10/17 10:37:27;;;;;;;4.57;2.00;;;;;;;;;;5081827;28;20283;-35
2022/10/17 10:39:55;;;;;;;2.00;1.80;;;;;;;;;;5092967;28;20224;-32
2022/10/17 10:42:25;;;;;;;3.30;1.53;;;;;;;;;;5066135;28;20229;-31
2022/10/17 10:44:53;;;;;;;4.17;2.03;;;;;;;;;;5073276;28;20209;-34
2022/10/17 10:47:21;;;;;;;2.93;1.90;;;;;;;;;;5071164;28;20315;-33
2022/10/17 10:49:50;;;;;;;3.57;1.60;;;;;;;;;;5055975;28;20232;-36
2022/10/17 10:52:22;;;;;;;7.17;1.70;;;;;;;;;;5062472;28;20202;-31
2022/10/17 10:54:54;;;;;;;2.27;2.00;;;;;;;;;;5059064;28;20205;-33
2022/10/17 10:57:23;;;;;;;3.33;2.20;;;;;;;;;;5065116;28;20215;-34
2022/10/17 10:59:56;;;;;;;8.40;2.20;;;;;;;;;;5060686;28;20227;-30
2022/10/17 11:02:26;;;;;;;5.93;1.97;;;;;;;;;;5056626;28;20230;-32
2022/10/17 11:04:56;;;;;;;3.87;1.80;;;;;;;;;;5060268;28;20207;-28
2022/10/17 11:07:28;;;;;;;3.03;1.80;;;;;;;;;;5064733;28;20213;-35
2022/10/17 11:09:59;;;;;;;1.80;1.70;;;;;;;;;;5072653;28;20355;-32
2022/10/17 11:12:28;;;;;;;4.60;1.73;;;;;;;;;;5060512;28;20202;-34
2022/10/17 11:15:00;;;;;;;5.13;2.07;;;;;;;;;;5063892;28;20205;-32
2022/10/17 11:17:30;;;;;;;7.23;1.90;;;;;;;;;;5069637;28;20492;-33
2022/10/17 11:20:03;;;;;;;1.60;1.50;;;;;;;;;;5067920;28;20225;-34
2022/10/17 11:22:34;;;;;;;2.23;2.07;;;;;;;;;;5072133;28;20197;-33
2022/10/17 11:25:05;;;;;;;2.67;1.90;;;;;;;;;;5052474;28;20193;-32
2022/10/17 11:27:32;;;;;;;2.10;1.90;;;;;;;;;;5063053;28;20219;-31
2022/10/17 11:29:59;;;;;;;2.87;2.10;;;;;;;;;;5072649;28;20308;-31
2022/10/17 11:34:58;;;;;;;3.13;1.90;;;;;;;;;;5045728;28;20304;-40
2022/10/17 11:37:27;;;;;;;2.43;1.53;;;;;;;;;;5055334;28;20212;-39
2022/10/17 11:39:57;;;;;;;1.70;1.57;;;;;;;;;;5051159;28;20226;-45
2022/10/17 11:42:26;;;;;;;2.07;1.50;;;;;;;;;;5042906;28;20198;-40
2022/10/17 11:44:56;;;;;;;2.80;1.70;;;;;;;;;;5045222;28;20209;-43
2022/10/17 11:47:28;;;;;;;5.83;2.20;;;;;;;;;;5049242;28;20216;-43
2022/10/17 11:49:58;;;;;;;4.90;1.73;;;;;;;;;;5041440;28;20240;-42
2022/10/17 11:52:29;;;;;;;1.70;1.60;;;;;;;;;;5050420;28;20202;-45
2022/10/17 11:55:00;;;;;;;2.50;1.43;;;;;;;;;;5046318;28;20219;-41
2022/10/17 11:57:36;;;;;;;2.07;1.83;;;;;;;;;;5050393;28;20686;-44
2022/10/17 12:00:16;;;;;;;1.80;1.70;;;;;;;;;;5045079;28;20706;-42
2022/10/17 12:02:46;;;;;;;4.77;1.73;;;;;;;;;;5033690;28;20208;-43
2022/10/17 12:05:20;;;;;;;4.53;1.80;;;;;;;;;;5034092;28;20294;-40
2022/10/17 12:07:50;;;;;;;3.73;1.70;;;;;;;;;;5051432;28;20214;-42
2022/10/17 12:10:34;;;;;;;6.40;1.73;;;;;;;;;;5050847;28;20226;-41
2022/10/17 12:13:16;;;;;;;1.70;1.57;;;;;;;;;;5032967;28;20209;-45
2022/10/17 12:15:43;;;;;;;4.30;1.60;;;;;;;;;;5047664;28;20205;-39
2022/10/17 12:18:16;;;;;;;1.87;1.70;;;;;;;;;;5062216;28;20210;-43
2022/10/17 12:20:43;;;;;;;1.50;1.30;;;;;;;;;;5053972;28;20236;-38
2022/10/17 12:23:22;;;;;;;1.80;1.60;;;;;;;;;;5057788;28;20210;-42
2022/10/17 12:25:52;;;;;;;3.97;1.77;;;;;;;;;;5039610;28;20214;-40
2022/10/17 12:28:24;;;;;;;4.97;1.73;;;;;;;;;;5051546;28;20232;-38
2022/10/17 12:30:52;;;;;;;2.83;1.70;;;;;;;;;;5055774;28;20223;-40
2022/10/17 12:33:21;;;;;;;1.90;1.80;;;;;;;;;;5048014;28;20594;-43
2022/10/17 12:35:49;;;;;;;2.93;1.33;;;;;;;;;;5039040;28;20210;-40
2022/10/17 12:38:21;;;;;;;1.67;1.30;;;;;;;;;;5060946;28;20246;-39
2022/10/17 12:41:15;;;;;;;4.07;1.63;;;;;;;;;;5073261;28;20225;-39
2022/10/17 12:43:48;;;;;;;2.90;1.40;;;;;;;;;;4998998;28;20395;-40
2022/10/17 12:46:30;;;;;;;2.80;1.73;;;;;;;;;;5050098;28;20194;-41
2022/10/17 12:49:02;;;;;;;2.30;1.27;;;;;;;;;;5042774;28;20225;-37
2022/10/17 12:51:29;;;;;;;2.50;1.57;;;;;;;;;;5047674;28;20312;-41
2022/10/17 12:53:58;;;;;;;1.80;1.60;;;;;;;;;;5055713;28;20858;-39
2022/10/17 12:56:32;;;;;;;3.60;1.60;;;;;;;;;;5054014;28;20264;-43
2022/10/17 12:59:01;;;;;;;2.30;1.70;;;;;;;;;;5046977;28;20210;-46
2022/10/17 13:01:29;;;;;;;1.47;1.37;;;;;;;;;;5051576;28;20228;-41
2022/10/17 13:03:57;;;;;;;4.83;1.50;;;;;;;;;;5048750;28;20204;-43
2022/10/17 13:06:25;;;;;;;5.30;1.60;;;;;;;;;;5055729;28;20216;-40
2022/10/17 13:08:55;;;;;;;4.37;1.37;;;;;;;;;;5054352;28;20235;-42
2022/10/17 13:11:24;;;;;;;3.20;1.27;;;;;;;;;;5055213;28;20582;-40
2022/10/17 13:13:53;;;;;;;8.27;2.13;;;;;;;;;;5052697;28;20216;-40
2022/10/17 13:16:31;;;;;;;5.33;1.77;;;;;;;;;;5061213;28;20211;-38
2022/10/17 13:18:59;;;;;;;4.67;1.67;;;;;;;;;;5043402;28;20217;-39
2022/10/17 13:21:26;;;;;;;2.97;1.57;;;;;;;;;;5037778;28;20688;-41
2022/10/17 13:23:53;;;;;;;9.43;1.70;;;;;;;;;;5047295;28;20207;-42
2022/10/17 13:26:22;;;;;;;2.50;1.20;;;;;;;;;;5055347;28;20202;-42
2022/10/17 13:29:01;;;;;;;1.63;1.13;;;;;;;;;;5049282;28;20551;-37
2022/10/17 13:31:31;;;;;;;6.43;1.20;;;;;;;;;;5049476;28;20226;-40
2022/10/17 13:33:58;;;;;;;4.40;1.30;;;;;;;;;;5045191;28;20222;-43
2022/10/17 13:36:32;;;;;;;11.83;1.50;;;;;;;;;;5054269;28;20212;-43
2022/10/17 13:39:00;;;;;;;1.30;1.20;;;;;;;;;;5047908;28;20218;-41
2022/10/17 13:41:28;;;;;;;1.40;1.13;;;;;;;;;;5052681;28;20226;-42
2022/10/17 13:43:57;;;;;;;3.33;1.10;;;;;;;;;;5041442;28;20212;-41
2022/10/17 13:46:26;;;;;;;5.20;1.37;;;;;;;;;;5053108;28;20218;-40
2022/10/17 13:48:55;;;;;;;2.80;1.40;;;;;;;;;;5047626;28;20248;-38
2022/10/17 13:51:23;;;;;;;4.70;1.30;;;;;;;;;;5043975;28;20226;-44
2022/10/17 13:53:50;;;;;;;4.73;1.30;;;;;;;;;;5053924;28;20207;-43
2022/10/17 13:56:19;;;;;;;2.30;1.30;;;;;;;;;;5045458;28;20218;-42
2022/10/17 13:58:47;;;;;;;4.63;1.40;;;;;;;;;;5057413;28;20206;-36
2022/10/17 14:01:15;;;;;;;1.33;1.10;;;;;;;;;;5046409;28;20237;-41
2022/10/17 14:03:42;;;;;;;3.23;1.40;;;;;;;;;;5045213;28;20217;-43
2022/10/17 14:06:14;;;;;;;0.80;0.80;;;;;;;;;;5053581;28;20209;-40
2022/10/17 14:08:48;;;;;;;2.20;1.10;;;;;;;;;;5069839;28;20237;-43
2022/10/17 14:11:18;;;;;;;4.53;1.03;;;;;;;;;;5065908;28;20227;-43
2022/10/17 14:13:48;;;;;;;1.73;1.10;;;;;;;;;;5037951;28;20208;-41
2022/10/17 14:16:16;;;;;;;1.63;1.17;;;;;;;;;;5044488;28;20219;-35
2022/10/17 14:18:46;;;;;;;3.00;1.37;;;;;;;;;;5047853;28;20211;-40
2022/10/17 14:21:18;;;;;;;2.13;1.30;;;;;;;;;;5056643;28;20229;-35
2022/10/17 14:23:46;;;;;;;3.57;1.10;;;;;;;;;;5057924;28;20203;-39
2022/10/17 14:26:14;;;;;;;3.07;1.30;;;;;;;;;;5072898;28;20736;-42
2022/10/17 14:28:43;;;;;;;7.83;1.30;;;;;;;;;;5047291;28;20223;-43
2022/10/17 14:31:28;;;;;;;3.10;1.40;;;;;;;;;;5058959;28;20253;-40
2022/10/17 14:33:55;;;;;;;4.60;1.60;;;;;;;;;;5044803;28;20307;-39
2022/10/17 14:36:31;;;;;;;2.10;1.40;;;;;;;;;;5053168;28;20212;-44
2022/10/17 14:38:58;;;;;;;3.63;1.60;;;;;;;;;;5066647;28;20197;-41
2022/10/17 14:41:27;;;;;;;2.00;1.47;;;;;;;;;;5072892;28;20236;-38
2022/10/17 14:43:56;;;;;;;3.03;1.80;;;;;;;;;;5044154;28;20293;-42
2022/10/17 14:46:23;;;;;;;3.53;1.57;;;;;;;;;;5069325;28;20295;-41
2022/10/17 14:48:58;;;;;;;4.93;1.90;;;;;;;;;;5044529;28;20338;-37
2022/10/17 14:51:27;;;;;;;5.17;1.40;;;;;;;;;;5050637;28;20680;-43
2022/10/17 14:54:02;;;;;;;3.73;1.70;;;;;;;;;;5066539;28;20230;-42
2022/10/17 14:56:35;;;;;;;5.27;1.80;;;;;;;;;;5072775;28;20198;-44
2022/10/17 14:59:04;;;;;;;6.33;1.80;;;;;;;;;;5048686;28;20198;-41